createdAt,value
2019-03-31T00:00:34.288Z,44.57
2019-03-31T00:03:07.217Z,41.07
2019-03-31T00:05:38.647Z,45.13
2019-03-31T00:08:09.844Z,46.97
2019-03-31T00:10:41.194Z,45.30
2019-03-31T00:13:14.110Z,43.73
2019-03-31T00:15:46.178Z,43.47
2019-03-31T00:18:17.354Z,43.57
2019-03-31T00:20:48.836Z,45.40
2019-03-31T00:23:20.230Z,45.33
2019-03-31T00:25:52.570Z,44.90
2019-03-31T00:28:23.803Z,49.00
2019-03-31T00:30:55.697Z,48.17
2019-03-31T00:33:29.120Z,48.30
2019-03-31T00:36:00.340Z,50.50
2019-03-31T00:38:31.495Z,51.50
2019-03-31T00:41:02.763Z,47.57
2019-03-31T00:43:33.934Z,47.87
2019-03-31T00:46:05.252Z,49.30
2019-03-31T00:48:36.642Z,49.00
2019-03-31T00:51:08.484Z,50.53
2019-03-31T00:53:39.653Z,51.30
2019-03-31T00:56:10.911Z,49.33
2019-03-31T00:58:42.142Z,48.63
2019-03-31T01:01:47.607Z,50.67
2019-03-31T01:04:23.244Z,50.40
2019-03-31T01:07:07.281Z,48.33
2019-03-31T01:09:38.760Z,51.17
2019-03-31T01:12:10.879Z,49.33
2019-03-31T01:14:43.534Z,49.57
2019-03-31T01:17:18.558Z,54.17
2019-03-31T01:19:50.549Z,52.50
2019-03-31T01:22:23.948Z,52.53
2019-03-31T01:24:55.827Z,52.37
2019-03-31T01:27:27.055Z,50.97
2019-03-31T01:29:59.589Z,53.10
2019-03-31T01:32:30.981Z,51.30
2019-03-31T01:35:02.760Z,51.43
2019-03-31T01:37:33.936Z,53.03
2019-03-31T01:40:08.968Z,55.87
2019-03-31T01:42:40.328Z,53.90
2019-03-31T01:45:13.490Z,53.07
2019-03-31T01:47:44.774Z,52.10
2019-03-31T01:50:16.620Z,52.90
2019-03-31T01:52:47.924Z,54.13
2019-03-31T01:55:19.207Z,52.80
2019-03-31T01:57:50.632Z,58.95
2019-03-31T02:00:33.642Z,55.87
2019-03-31T02:03:04.992Z,51.30
2019-03-31T02:05:36.364Z,49.53
2019-03-31T02:08:07.768Z,51.47
2019-03-31T02:10:38.917Z,51.17
2019-03-31T02:13:10.259Z,44.90
2019-03-31T02:15:41.554Z,45.80
2019-03-31T02:18:12.729Z,40.70
2019-03-31T02:20:43.862Z,39.50
2019-03-31T02:23:16.529Z,39.83
2019-03-31T02:25:47.841Z,39.90
2019-03-31T02:28:18.980Z,39.30
2019-03-31T02:30:50.228Z,38.20
2019-03-31T02:33:21.330Z,38.17
2019-03-31T02:35:52.558Z,41.50
2019-03-31T02:38:23.705Z,38.07
2019-03-31T02:40:55.023Z,41.90
2019-03-31T02:43:26.320Z,38.70
2019-03-31T02:45:57.536Z,43.43
2019-03-31T02:48:28.777Z,43.97
2019-03-31T02:51:00.324Z,40.10
2019-03-31T02:53:31.774Z,45.17
2019-03-31T02:56:04.304Z,43.57
2019-03-31T02:58:37.111Z,42.10
2019-03-31T03:01:09.279Z,43.43
2019-03-31T03:03:40.668Z,43.00
2019-03-31T03:06:14.300Z,42.53
2019-03-31T03:08:49.576Z,44.30
2019-03-31T03:11:22.893Z,42.00
2019-03-31T03:13:56.026Z,42.00
2019-03-31T03:16:27.626Z,40.67
2019-03-31T03:18:58.871Z,43.50
2019-03-31T03:21:30.117Z,41.70
2019-03-31T03:24:01.628Z,43.17
2019-03-31T03:26:33.025Z,44.00
2019-03-31T03:29:04.338Z,44.17
2019-03-31T03:31:35.544Z,45.50
2019-03-31T03:34:06.831Z,43.60
2019-03-31T03:36:38.009Z,42.47
2019-03-31T03:39:09.864Z,44.97
2019-03-31T03:41:41.103Z,42.73
2019-03-31T03:44:12.224Z,47.57
2019-03-31T03:46:43.434Z,47.20
2019-03-31T03:49:14.821Z,45.90
2019-03-31T03:51:46.285Z,44.60
2019-03-31T03:54:17.479Z,46.27
2019-03-31T03:56:48.777Z,46.53
2019-03-31T03:59:19.937Z,50.30
2019-03-31T04:01:51.141Z,47.23
2019-03-31T04:04:22.326Z,44.90
2019-03-31T04:06:53.542Z,45.40
2019-03-31T04:09:24.704Z,43.13
2019-03-31T04:11:55.833Z,45.27
2019-03-31T04:14:27.038Z,47.30
2019-03-31T04:16:58.246Z,44.00
2019-03-31T04:19:29.745Z,43.90
2019-03-31T04:22:00.974Z,46.03
2019-03-31T04:24:34.099Z,43.23
2019-03-31T04:27:05.472Z,42.77
2019-03-31T04:29:36.629Z,43.67
2019-03-31T04:32:07.801Z,42.80
2019-03-31T04:34:38.917Z,42.70
2019-03-31T04:37:10.210Z,42.97
2019-03-31T04:39:41.472Z,42.50
2019-03-31T04:42:12.676Z,40.40
2019-03-31T04:44:43.912Z,41.53
2019-03-31T04:47:15.728Z,43.73
2019-03-31T04:49:48.075Z,38.60
2019-03-31T04:52:19.229Z,37.80
2019-03-31T04:54:52.322Z,37.07
2019-03-31T04:57:23.805Z,34.77
2019-03-31T04:59:55.172Z,32.97
2019-03-31T05:02:27.394Z,33.80
2019-03-31T05:04:59.149Z,33.93
2019-03-31T05:07:30.264Z,34.90
2019-03-31T05:10:01.444Z,32.60
2019-03-31T05:12:32.724Z,32.30
2019-03-31T05:15:03.978Z,32.40
2019-03-31T05:17:35.906Z,33.97
2019-03-31T05:20:07.521Z,31.70
2019-03-31T05:22:38.697Z,31.10
2019-03-31T05:25:09.895Z,31.60
2019-03-31T05:27:41.321Z,30.10
2019-03-31T05:30:12.549Z,31.27
2019-03-31T05:32:43.754Z,30.20
2019-03-31T05:35:15.069Z,29.10
2019-03-31T05:37:51.052Z,26.80
2019-03-31T05:40:19.121Z,27.73
2019-03-31T05:42:50.357Z,26.23
2019-03-31T05:45:21.685Z,24.77
2019-03-31T05:47:52.900Z,24.57
2019-03-31T05:50:23.999Z,24.23
2019-03-31T05:52:58.956Z,23.40
2019-03-31T05:55:32.116Z,22.20
2019-03-31T05:58:03.393Z,24.20
2019-03-31T06:00:38.956Z,22.00
2019-03-31T06:03:10.182Z,22.63
2019-03-31T06:05:41.416Z,20.80
2019-03-31T06:08:15.620Z,20.20
2019-03-31T06:10:46.783Z,20.30
2019-03-31T06:13:17.941Z,20.37
2019-03-31T06:15:49.293Z,19.43
2019-03-31T06:18:20.531Z,19.33
2019-03-31T06:20:52.011Z,18.30
2019-03-31T06:23:23.232Z,17.27
2019-03-31T06:25:54.454Z,16.57
2019-03-31T06:28:25.773Z,17.07
2019-03-31T06:30:57.104Z,16.33
2019-03-31T06:33:28.255Z,17.00
2019-03-31T06:35:59.442Z,14.90
2019-03-31T06:38:30.618Z,15.07
2019-03-31T06:41:02.140Z,15.23
2019-03-31T06:43:33.269Z,13.50
2019-03-31T06:46:04.702Z,14.70
2019-03-31T06:48:36.084Z,14.80
2019-03-31T06:51:07.597Z,15.90
2019-03-31T06:53:38.736Z,14.97
2019-03-31T06:56:13.076Z,15.60
2019-03-31T06:58:44.208Z,17.00
2019-03-31T07:01:15.455Z,14.37
2019-03-31T07:03:49.169Z,13.63
2019-03-31T07:06:20.426Z,13.40
2019-03-31T07:08:51.560Z,13.37
2019-03-31T07:11:22.865Z,13.83
2019-03-31T07:13:54.016Z,11.77
2019-03-31T07:16:25.211Z,12.30
2019-03-31T07:18:59.277Z,9.83
2019-03-31T07:21:33.427Z,10.40
2019-03-31T07:24:04.702Z,9.90
2019-03-31T07:26:38.129Z,8.57
2019-03-31T07:29:09.449Z,9.83
2019-03-31T07:31:40.596Z,10.37
2019-03-31T07:34:11.905Z,9.57
2019-03-31T07:36:46.614Z,9.00
2019-03-31T07:39:18.170Z,10.00
2019-03-31T07:41:49.653Z,11.97
2019-03-31T07:44:20.973Z,11.90
2019-03-31T07:46:52.179Z,9.93
2019-03-31T07:49:23.386Z,10.87
2019-03-31T07:51:54.516Z,11.63
2019-03-31T07:54:25.827Z,11.10
2019-03-31T07:56:56.986Z,11.60
2019-03-31T07:59:28.461Z,11.67
2019-03-31T08:01:59.803Z,11.10
2019-03-31T08:04:31.058Z,9.97
2019-03-31T08:07:02.279Z,9.70
2019-03-31T08:09:33.465Z,8.13
2019-03-31T08:12:04.702Z,8.90
2019-03-31T08:14:37.865Z,9.03
2019-03-31T08:17:09.078Z,8.93
2019-03-31T08:19:43.406Z,9.53
2019-03-31T08:22:14.594Z,9.77
2019-03-31T08:24:45.767Z,8.50
2019-03-31T08:27:17.505Z,8.43
2019-03-31T08:29:59.893Z,7.13
2019-03-31T08:32:21.596Z,8.27
2019-03-31T08:34:52.975Z,7.97
2019-03-31T08:37:24.214Z,8.07
2019-03-31T08:39:58.266Z,8.00
2019-03-31T08:42:29.556Z,7.00
2019-03-31T08:45:00.798Z,8.27
2019-03-31T08:47:31.960Z,5.83
2019-03-31T08:50:03.498Z,5.90
2019-03-31T08:52:34.679Z,6.10
2019-03-31T08:55:06.400Z,6.53
2019-03-31T08:57:37.669Z,6.07
2019-03-31T09:00:12.553Z,6.23
2019-03-31T09:02:45.933Z,6.03
2019-03-31T09:05:17.471Z,6.43
2019-03-31T09:07:53.463Z,6.63
2019-03-31T09:10:24.698Z,6.10
2019-03-31T09:12:56.009Z,6.83
2019-03-31T09:15:27.124Z,5.60
2019-03-31T09:17:58.736Z,7.10
2019-03-31T09:20:30.110Z,5.67
2019-03-31T09:23:01.264Z,4.53
2019-03-31T09:25:34.332Z,3.80
2019-03-31T09:28:05.636Z,3.10
2019-03-31T09:30:38.948Z,3.43
2019-03-31T09:33:10.108Z,3.00
2019-03-31T09:35:41.277Z,4.20
2019-03-31T09:38:12.675Z,2.10
2019-03-31T09:40:45.804Z,1.80
2019-03-31T09:43:19.853Z,1.77
2019-03-31T09:45:54.132Z,1.67
2019-03-31T09:48:25.340Z,1.67
2019-03-31T09:50:56.766Z,2.20
2019-03-31T09:53:28.075Z,1.60
2019-03-31T09:56:00.837Z,2.73
2019-03-31T09:58:32.016Z,2.20
2019-03-31T10:01:08.112Z,1.80
2019-03-31T10:03:39.521Z,2.70
2019-03-31T10:06:13.124Z,1.80
2019-03-31T10:08:47.303Z,2.43
2019-03-31T10:11:18.485Z,1.50
2019-03-31T10:13:49.763Z,2.53
2019-03-31T10:16:20.965Z,2.20
2019-03-31T10:18:52.477Z,2.50
2019-03-31T10:21:26.845Z,2.03
2019-03-31T10:23:59.577Z,1.40
2019-03-31T10:26:32.280Z,2.00
2019-03-31T10:29:03.913Z,2.30
2019-03-31T10:31:37.814Z,2.47
2019-03-31T10:34:09.122Z,2.90
2019-03-31T10:36:44.808Z,2.10
2019-03-31T10:39:13.776Z,2.10
2019-03-31T10:41:45.107Z,2.00
2019-03-31T10:44:21.086Z,2.43
2019-03-31T10:46:58.593Z,2.40
2019-03-31T10:49:41.073Z,2.50
2019-03-31T10:52:09.932Z,2.00
2019-03-31T10:54:41.238Z,2.73
2019-03-31T10:57:18.408Z,1.93
2019-03-31T10:59:53.965Z,3.57
2019-03-31T11:02:30.184Z,1.27
2019-03-31T11:05:07.817Z,1.83
2019-03-31T11:07:39.335Z,2.27
2019-03-31T11:10:10.851Z,2.20
2019-03-31T11:12:42.080Z,1.90
2019-03-31T11:15:13.474Z,2.10
2019-03-31T11:17:46.857Z,3.33
2019-03-31T11:20:20.503Z,1.90
2019-03-31T11:22:59.203Z,1.83
2019-03-31T11:25:30.480Z,2.03
2019-03-31T11:28:02.177Z,2.10
2019-03-31T11:30:33.639Z,3.00
2019-03-31T11:33:07.449Z,2.50
2019-03-31T11:35:38.311Z,2.77
2019-03-31T11:38:09.620Z,1.53
2019-03-31T11:40:40.880Z,1.40
2019-03-31T11:43:12.115Z,2.07
2019-03-31T11:45:45.036Z,1.93
2019-03-31T11:48:16.324Z,3.03
2019-03-31T11:50:47.661Z,2.10
2019-03-31T11:53:18.982Z,2.47
2019-03-31T11:55:50.345Z,1.77
2019-03-31T11:58:21.696Z,2.43
2019-03-31T12:00:55.712Z,2.67
2019-03-31T12:03:30.639Z,1.57
2019-03-31T12:06:00.067Z,2.87
2019-03-31T12:08:31.358Z,2.27
2019-03-31T12:11:02.705Z,2.23
2019-03-31T12:13:36.984Z,3.23
2019-03-31T12:16:08.321Z,1.90
2019-03-31T12:18:39.687Z,2.30
2019-03-31T12:21:12.537Z,1.90
2019-03-31T12:23:44.086Z,2.27
2019-03-31T12:26:15.882Z,2.17
2019-03-31T12:28:49.432Z,4.07
2019-03-31T12:31:21.725Z,2.40
2019-03-31T12:33:52.898Z,2.33
2019-03-31T12:36:26.029Z,2.10
2019-03-31T12:39:00.271Z,2.30
2019-03-31T12:41:33.139Z,2.30
2019-03-31T12:44:07.214Z,2.03
2019-03-31T12:46:38.425Z,2.00
2019-03-31T12:49:09.765Z,1.60
2019-03-31T12:51:42.522Z,2.47
2019-03-31T12:54:13.943Z,2.70
2019-03-31T12:56:45.225Z,2.07
2019-03-31T12:59:17.702Z,2.23
2019-03-31T13:04:19.061Z,2.30
2019-03-31T13:06:53.359Z,2.00
2019-03-31T13:09:24.592Z,2.97
2019-03-31T13:11:56.149Z,2.20
2019-03-31T13:14:27.599Z,3.50
2019-03-31T13:17:01.529Z,2.10
2019-03-31T13:19:32.061Z,1.90
2019-03-31T13:22:03.491Z,1.60
2019-03-31T13:24:42.248Z,1.70
2019-03-31T13:27:18.721Z,2.10
2019-03-31T13:29:49.976Z,1.93
2019-03-31T13:32:21.589Z,1.80
2019-03-31T13:34:52.828Z,2.33
2019-03-31T13:37:24.220Z,2.00
2019-03-31T13:39:55.833Z,2.40
2019-03-31T13:42:27.257Z,2.10
2019-03-31T13:44:58.462Z,2.00
2019-03-31T13:47:29.886Z,2.13
2019-03-31T13:50:01.276Z,2.00
2019-03-31T13:52:32.614Z,1.73
2019-03-31T13:55:04.321Z,2.43
2019-03-31T13:57:37.249Z,3.30
2019-03-31T14:00:11.169Z,2.07
2019-03-31T14:02:42.775Z,2.07
2019-03-31T14:05:14.257Z,3.30
2019-03-31T14:07:46.138Z,2.00
2019-03-31T14:10:21.290Z,2.10
2019-03-31T14:12:52.877Z,1.90
2019-03-31T14:15:24.577Z,2.40
2019-03-31T14:17:56.152Z,2.53
2019-03-31T14:20:27.235Z,2.23
2019-03-31T14:23:06.373Z,2.43
2019-03-31T14:25:37.888Z,2.50
2019-03-31T14:28:09.338Z,2.27
2019-03-31T14:30:40.618Z,2.30
2019-03-31T14:33:20.488Z,2.30
2019-03-31T14:35:51.872Z,2.17
2019-03-31T14:38:23.164Z,2.97
2019-03-31T14:40:54.376Z,2.00
2019-03-31T14:43:27.988Z,2.47
2019-03-31T14:45:58.806Z,1.83
2019-03-31T14:48:30.082Z,2.30
2019-03-31T14:51:03.745Z,2.50
2019-03-31T14:53:35.069Z,2.20
2019-03-31T14:56:06.526Z,2.97
2019-03-31T14:58:37.935Z,4.60
2019-03-31T15:01:09.362Z,2.20
2019-03-31T15:03:49.723Z,1.83
2019-03-31T15:06:24.518Z,1.90
2019-03-31T15:08:56.227Z,2.40
2019-03-31T15:11:27.989Z,2.40
2019-03-31T15:14:02.623Z,1.47
2019-03-31T15:16:48.601Z,1.90
2019-03-31T15:19:33.327Z,1.93
2019-03-31T15:22:05.198Z,1.50
2019-03-31T15:24:40.123Z,1.67
2019-03-31T15:27:12.336Z,1.73
2019-03-31T15:29:48.377Z,1.53
2019-03-31T15:32:22.328Z,2.00
2019-03-31T15:34:57.569Z,2.00
2019-03-31T15:37:34.900Z,1.40
2019-03-31T15:40:22.211Z,1.50
2019-03-31T15:42:56.893Z,1.70
2019-03-31T15:45:31.555Z,1.37
2019-03-31T15:48:06.119Z,2.07
2019-03-31T15:50:37.815Z,1.60
2019-03-31T15:53:17.348Z,1.93
2019-03-31T15:55:58.165Z,1.63
2019-03-31T15:58:32.328Z,1.63
2019-03-31T16:01:05.605Z,2.00
2019-03-31T16:03:38.486Z,1.83
2019-03-31T16:06:10.103Z,1.80
2019-03-31T16:08:41.375Z,1.53
2019-03-31T16:11:14.521Z,1.67
2019-03-31T16:13:46.545Z,1.43
2019-03-31T16:16:19.883Z,1.87
2019-03-31T16:18:53.453Z,1.40
2019-03-31T16:21:30.138Z,2.07
2019-03-31T16:24:02.812Z,1.67
2019-03-31T16:26:36.963Z,1.93
2019-03-31T16:29:16.488Z,1.50
2019-03-31T16:31:50.597Z,1.60
2019-03-31T16:34:28.050Z,1.47
2019-03-31T16:37:03.504Z,1.60
2019-03-31T16:39:37.998Z,1.60
2019-03-31T16:42:13.296Z,1.53
2019-03-31T16:44:57.534Z,1.57
2019-03-31T16:47:18.915Z,1.60
2019-03-31T16:49:55.369Z,1.97
2019-03-31T16:52:31.057Z,1.53
2019-03-31T16:55:05.870Z,1.63
2019-03-31T16:57:38.072Z,1.50
2019-03-31T17:00:09.623Z,2.00
2019-03-31T17:02:40.778Z,1.50
2019-03-31T17:05:23.571Z,2.53
2019-03-31T17:08:16.329Z,1.47
2019-03-31T17:10:55.412Z,1.40
2019-03-31T17:13:30.997Z,1.40
2019-03-31T17:16:08.982Z,1.53
2019-03-31T17:18:44.473Z,1.30
2019-03-31T17:21:19.326Z,1.67
2019-03-31T17:23:53.882Z,1.50
2019-03-31T17:26:24.987Z,1.77
2019-03-31T17:28:57.753Z,1.93
2019-03-31T17:31:30.656Z,2.43
2019-03-31T17:34:08.759Z,1.80
2019-03-31T17:36:39.705Z,2.10
2019-03-31T17:39:10.854Z,2.13
2019-03-31T17:41:52.597Z,2.17
2019-03-31T17:44:25.147Z,2.10
2019-03-31T17:46:56.360Z,3.80
2019-03-31T17:49:30.738Z,2.67
2019-03-31T17:52:03.178Z,2.43
2019-03-31T17:54:34.013Z,2.37
2019-03-31T17:57:05.911Z,2.60
2019-03-31T17:59:36.802Z,2.55
2019-03-31T18:02:11.558Z,2.70
2019-03-31T18:04:42.553Z,3.53
2019-03-31T18:07:13.433Z,2.30
2019-03-31T18:09:44.484Z,2.67
2019-03-31T18:12:18.371Z,2.20
2019-03-31T18:14:51.563Z,2.83
2019-03-31T18:17:25.173Z,2.73
2019-03-31T18:19:59.402Z,2.30
2019-03-31T18:22:31.861Z,2.60
2019-03-31T18:25:02.934Z,2.90
2019-03-31T18:27:35.604Z,2.83
2019-03-31T18:30:06.924Z,2.90
2019-03-31T18:32:39.814Z,2.80
2019-03-31T18:35:10.954Z,2.80
2019-03-31T18:37:41.908Z,4.70
2019-03-31T18:40:15.110Z,2.20
2019-03-31T18:42:51.441Z,2.93
2019-03-31T18:45:22.291Z,2.43
2019-03-31T18:47:55.775Z,3.13
2019-03-31T18:50:26.651Z,2.60
2019-03-31T18:53:03.228Z,2.40
2019-03-31T18:55:43.489Z,2.73
2019-03-31T18:58:27.337Z,3.00
2019-03-31T19:01:18.739Z,3.00
2019-03-31T19:04:27.865Z,2.60
2019-03-31T19:07:31.715Z,2.80
2019-03-31T19:10:27.572Z,2.60
2019-03-31T19:13:26.145Z,2.63
2019-03-31T19:16:19.379Z,2.80
2019-03-31T19:19:18.944Z,2.67
2019-03-31T19:22:15.048Z,2.50
2019-03-31T19:25:10.616Z,3.43
2019-03-31T19:27:59.031Z,2.97
2019-03-31T19:30:42.914Z,3.00
2019-03-31T19:33:35.022Z,2.20
2019-03-31T19:36:28.066Z,2.50
2019-03-31T19:39:37.598Z,3.00
2019-03-31T19:42:27.723Z,3.60
2019-03-31T19:45:31.511Z,2.60
2019-03-31T19:48:40.011Z,1.97
2019-03-31T19:51:19.429Z,2.70
2019-03-31T19:54:15.814Z,2.50
2019-03-31T19:56:59.449Z,2.43
2019-03-31T19:59:51.309Z,1.90
2019-03-31T20:02:48.551Z,3.00
2019-03-31T20:05:46.798Z,2.10
2019-03-31T20:08:36.713Z,2.47
2019-03-31T20:11:21.527Z,2.00
2019-03-31T20:14:03.935Z,1.87
2019-03-31T20:17:02.712Z,3.47
2019-03-31T20:19:54.531Z,1.80
2019-03-31T20:22:36.998Z,1.67
2019-03-31T20:25:52.354Z,2.87
2019-03-31T20:28:51.681Z,2.20
2019-03-31T20:31:49.211Z,2.40
2019-03-31T20:34:33.777Z,2.00
2019-03-31T20:37:24.731Z,3.03
2019-03-31T20:40:09.399Z,2.57
2019-03-31T20:43:03.382Z,1.70
2019-03-31T20:45:35.894Z,1.93
2019-03-31T20:48:10.585Z,2.23
2019-03-31T20:50:41.597Z,2.70
2019-03-31T20:53:14.310Z,3.10
2019-03-31T20:55:45.260Z,2.47
2019-03-31T20:58:16.636Z,1.67
2019-03-31T21:00:48.675Z,2.37
2019-03-31T21:03:22.622Z,1.60
2019-03-31T21:05:55.838Z,2.57
2019-03-31T21:08:33.584Z,2.03
2019-03-31T21:11:06.403Z,2.37
2019-03-31T21:13:37.489Z,2.23
2019-03-31T21:16:12.618Z,7.23
2019-03-31T21:19:19.163Z,2.13
2019-03-31T21:21:33.349Z,6.67
2019-03-31T21:24:05.775Z,14.00
2019-03-31T21:26:36.905Z,11.83
2019-03-31T21:29:11.596Z,1.83
2019-03-31T21:31:42.841Z,1.70
2019-03-31T21:34:13.831Z,2.10
2019-03-31T21:36:44.929Z,15.70
2019-03-31T21:39:22.378Z,8.90
2019-03-31T21:41:56.480Z,3.80
2019-03-31T21:44:29.164Z,2.00
2019-03-31T21:47:02.312Z,1.80
2019-03-31T21:49:33.452Z,3.03
2019-03-31T21:52:04.920Z,4.97
2019-03-31T21:54:37.570Z,2.57
2019-03-31T21:57:08.562Z,10.63
2019-03-31T21:59:40.035Z,8.50
2019-03-31T22:02:14.879Z,2.90
2019-03-31T22:04:48.404Z,5.87
2019-03-31T22:07:19.026Z,8.70
2019-03-31T22:09:49.652Z,7.80
2019-03-31T22:12:20.389Z,4.33
2019-03-31T22:14:53.596Z,2.80
2019-03-31T22:17:24.244Z,4.47
2019-03-31T22:19:54.867Z,31.90
2019-03-31T22:22:25.553Z,12.50
2019-03-31T22:24:56.447Z,4.80
2019-03-31T22:27:30.095Z,15.93
2019-03-31T22:30:00.754Z,2.60
2019-03-31T22:32:33.095Z,2.70
2019-03-31T22:35:03.853Z,3.27
2019-03-31T22:37:35.787Z,9.43
2019-03-31T22:40:06.584Z,4.80
2019-03-31T22:42:37.185Z,5.53
2019-03-31T22:45:11.162Z,1.83
2019-03-31T22:47:41.883Z,2.53
2019-03-31T22:50:12.614Z,7.93
2019-03-31T22:52:43.232Z,6.83
2019-03-31T22:55:14.031Z,9.57
2019-03-31T22:57:44.740Z,1.73
2019-03-31T23:00:21.501Z,3.53
2019-03-31T23:02:52.106Z,3.10
2019-03-31T23:05:22.878Z,5.87
2019-03-31T23:07:55.738Z,4.63
2019-03-31T23:10:26.742Z,14.97
2019-03-31T23:12:57.449Z,7.80
2019-03-31T23:15:28.886Z,8.07
2019-03-31T23:17:59.590Z,28.73
2019-03-31T23:20:30.352Z,5.80
2019-03-31T23:23:02.614Z,6.10
2019-03-31T23:25:33.226Z,2.17
2019-03-31T23:28:04.191Z,2.60
2019-03-31T23:30:34.854Z,2.80
2019-03-31T23:33:05.549Z,2.80
2019-03-31T23:35:36.344Z,3.80
2019-03-31T23:38:07.078Z,25.00
2019-03-31T23:40:37.707Z,4.87
2019-03-31T23:43:08.314Z,3.20
2019-03-31T23:45:38.955Z,4.00
2019-03-31T23:48:09.589Z,4.73
2019-03-31T23:50:40.240Z,15.57
2019-03-31T23:53:10.955Z,11.00
2019-03-31T23:55:41.612Z,9.97
2019-03-31T23:58:12.348Z,3.30
